Overview Statistics Trail Chart Weather Telemetry Raw packets
 

This is the latest recevied weather packets stored in our database for station/object KK7ZBX. If no packets are shown the sender has not sent any weather packets the latest 10 day(s).

<< 3 4 5 6 7 >>
Time Temp. Humidity Pressure Rain* Wind** Luminosity Snow
1787986890 16.11° C 72% 1016.2 hPa - - - -
1787986828 16.11° C 72% 1016.2 hPa - - - -
1787985028 16.11° C 71% 1016.2 hPa - - - -
1787979620 16.67° C 66% 1016.3 hPa - - - -
1787977827 16.67° C 66% 1016.2 hPa - - - -
1787976018 16.67° C 66% 1016.1 hPa - - - -
1787974225 17.22° C 66% 1015.9 hPa - - - -
1787970613 18.33° C 64% 1015.6 hPa - - - -
1787965207 21.11° C 54% 1015.4 hPa - - - -
1787963420 22.22° C 53% 1015.6 hPa - - - -
1787961623 21.11° C 54% 1015.8 hPa - - - -
1787959824 21.67° C 53% 1016 hPa - - - -
1787956207 21.11° C 58% 1016.8 hPa - - - -
1787947234 20.56° C 61% 1017.8 hPa - - - -
1787941858 19.44° C 66% 1018.3 hPa - - - -
1787941820 19.44° C 66% 1018.3 hPa - - - -
1787940020 19.44° C 67% 1018.5 hPa - - - -
1787938231 18.33° C 69% 1018.5 hPa - - - -
1787882414 21.67° C 54% 1017.4 hPa - - - -
1787877030 22.78° C 52% 1017.3 hPa - - - -
1787868068 22.78° C 53% 1017.7 hPa - - - -
1787868027 22.78° C 53% 1017.7 hPa - - - -
1787866226 22.78° C 54% 1017.8 hPa - - - -
1787859026 21.11° C 58% 1018.1 hPa - - - -
1787851829 19.44° C 65% 1017.5 hPa - - - -

* Rain since midnight (hover to see other rain measurements)
** Current wind speed in m/s (hover to see current wind gust speed)